Time;durP1;ratioP1;P1;durP2;ratioP2;P2;SDS_P1;SDS_P2;PMS_P1;PMS_P2;Temp;Humidity;BMP_temperature;BMP_pressure;BME280_temperature;BME280_humidity;BME280_pressure;Samples;Min_cycle;Max_cycle;Signal;HPM_P1;HPM_P2
2022/05/13 00:01:19;;;;;;;6.40;2.47;;;;;;;;;;4974466;28;20109;-85
2022/05/13 00:03:45;;;;;;;5.90;1.98;;;;;;;;;;4942584;28;20125;-85
2022/05/13 00:06:11;;;;;;;7.93;1.83;;;;;;;;;;4974365;28;20113;-85
2022/05/13 00:08:37;;;;;;;7.93;2.33;;;;;;;;;;4974062;28;20213;-85
2022/05/13 00:11:04;;;;;;;10.70;2.30;;;;;;;;;;4974232;28;20501;-85
2022/05/13 00:13:30;;;;;;;8.20;1.92;;;;;;;;;;4974351;28;20049;-85
2022/05/13 00:15:57;;;;;;;5.45;1.80;;;;;;;;;;4974186;28;20035;-85
2022/05/13 00:18:22;;;;;;;9.43;2.33;;;;;;;;;;4974243;28;20042;-85
2022/05/13 00:20:48;;;;;;;11.13;1.92;;;;;;;;;;4974064;28;20054;-85
2022/05/13 00:23:15;;;;;;;5.60;1.90;;;;;;;;;;4974402;28;20129;-85
2022/05/13 00:25:41;;;;;;;7.68;2.10;;;;;;;;;;4975463;28;20038;-85
2022/05/13 00:28:08;;;;;;;5.60;1.90;;;;;;;;;;4974018;28;20187;-85
2022/05/13 00:30:35;;;;;;;7.63;2.25;;;;;;;;;;4973755;28;20412;-86
2022/05/13 00:33:01;;;;;;;8.25;2.22;;;;;;;;;;4974054;28;20077;-85
2022/05/13 00:35:27;;;;;;;8.30;2.35;;;;;;;;;;4941728;28;20479;-85
2022/05/13 00:37:53;;;;;;;7.63;2.17;;;;;;;;;;4973939;28;20054;-84
2022/05/13 00:40:20;;;;;;;7.80;2.10;;;;;;;;;;4973613;28;20154;-85
2022/05/13 00:42:46;;;;;;;7.30;2.25;;;;;;;;;;4975205;28;20106;-85
2022/05/13 00:45:14;;;;;;;7.55;2.22;;;;;;;;;;4973868;28;20443;-84
2022/05/13 00:47:44;;;;;;;8.35;2.30;;;;;;;;;;4973701;28;20508;-85
2022/05/13 00:50:11;;;;;;;7.30;1.90;;;;;;;;;;4973424;28;20038;-84
2022/05/13 00:52:38;;;;;;;10.65;2.10;;;;;;;;;;4973589;28;20046;-85
2022/05/13 00:55:08;;;;;;;7.32;2.33;;;;;;;;;;4973454;28;20059;-85
2022/05/13 00:57:35;;;;;;;11.07;2.45;;;;;;;;;;4941575;28;20074;-85
2022/05/13 01:00:02;;;;;;;8.80;2.17;;;;;;;;;;4973792;28;20046;-85
2022/05/13 01:02:30;;;;;;;8.90;2.22;;;;;;;;;;4941228;28;20097;-85
2022/05/13 01:04:56;;;;;;;6.88;2.22;;;;;;;;;;4973358;28;20077;-84
2022/05/13 01:07:22;;;;;;;12.45;2.53;;;;;;;;;;4974479;28;20121;-84
2022/05/13 01:09:54;;;;;;;8.48;2.42;;;;;;;;;;4974752;28;20070;-85
2022/05/13 01:12:22;;;;;;;6.45;2.33;;;;;;;;;;4973299;28;20079;-85
2022/05/13 01:14:53;;;;;;;10.63;2.38;;;;;;;;;;4973336;28;20042;-85
2022/05/13 01:20:07;;;;;;;10.32;2.80;;;;;;;;;;4956986;28;20054;-86
2022/05/13 01:22:44;;;;;;;8.65;2.25;;;;;;;;;;4973133;28;20049;-85
2022/05/13 01:25:14;;;;;;;9.13;2.60;;;;;;;;;;4974544;28;20050;-85
2022/05/13 01:27:42;;;;;;;8.98;2.67;;;;;;;;;;4973045;28;20387;-85
2022/05/13 01:30:08;;;;;;;8.23;2.75;;;;;;;;;;4972930;28;20058;-85
2022/05/13 01:32:34;;;;;;;8.70;2.28;;;;;;;;;;4973043;28;20117;-85
2022/05/13 01:35:00;;;;;;;8.35;2.38;;;;;;;;;;4973100;28;20047;-85
2022/05/13 01:37:26;;;;;;;8.82;2.55;;;;;;;;;;4972595;28;20065;-85
2022/05/13 01:39:52;;;;;;;10.02;2.88;;;;;;;;;;4972944;28;20519;-85
2022/05/13 01:42:18;;;;;;;7.70;2.25;;;;;;;;;;4972651;28;20051;-84
2022/05/13 01:44:44;;;;;;;9.80;2.60;;;;;;;;;;4973111;28;20057;-84
2022/05/13 01:47:10;;;;;;;10.57;2.35;;;;;;;;;;4973974;28;20078;-84
2022/05/13 01:49:36;;;;;;;9.18;2.65;;;;;;;;;;4972653;28;20042;-85
2022/05/13 01:52:02;;;;;;;9.05;2.70;;;;;;;;;;4972553;28;20047;-85
2022/05/13 01:54:27;;;;;;;7.75;2.47;;;;;;;;;;4972674;28;20061;-84
2022/05/13 01:56:53;;;;;;;10.15;2.50;;;;;;;;;;4956469;28;20055;-85
2022/05/13 01:59:19;;;;;;;11.82;3.10;;;;;;;;;;4972910;28;20043;-85
2022/05/13 02:01:45;;;;;;;10.10;2.58;;;;;;;;;;4972546;28;20486;-84
2022/05/13 02:04:11;;;;;;;10.25;3.00;;;;;;;;;;4972819;28;20069;-84
2022/05/13 02:06:37;;;;;;;9.50;3.25;;;;;;;;;;4956734;28;20119;-84
2022/05/13 02:09:03;;;;;;;7.32;2.50;;;;;;;;;;4972625;28;20054;-84
2022/05/13 02:11:31;;;;;;;10.02;2.78;;;;;;;;;;4940796;28;20118;-84
2022/05/13 02:13:57;;;;;;;7.38;2.53;;;;;;;;;;4973867;28;20394;-84
2022/05/13 02:16:23;;;;;;;8.85;2.33;;;;;;;;;;4972585;28;20048;-85
2022/05/13 02:18:49;;;;;;;10.50;2.28;;;;;;;;;;4940459;28;20363;-84
2022/05/13 02:21:17;;;;;;;9.88;2.85;;;;;;;;;;4972397;28;20053;-85
2022/05/13 02:23:43;;;;;;;9.95;3.22;;;;;;;;;;4973850;28;20046;-84
2022/05/13 02:26:11;;;;;;;9.18;2.72;;;;;;;;;;4972224;28;20509;-85
2022/05/13 02:28:37;;;;;;;11.13;2.67;;;;;;;;;;4972330;28;20053;-85
2022/05/13 02:31:03;;;;;;;8.70;2.63;;;;;;;;;;4973828;28;20059;-85
2022/05/13 02:33:30;;;;;;;10.60;3.85;;;;;;;;;;4974327;28;20050;-85
2022/05/13 02:35:57;;;;;;;7.75;2.88;;;;;;;;;;4976124;28;20046;-85
2022/05/13 02:38:23;;;;;;;10.48;3.10;;;;;;;;;;4975907;28;20487;-84
2022/05/13 02:43:34;;;;;;;9.73;3.03;;;;;;;;;;4959771;28;20082;-85
2022/05/13 02:46:00;;;;;;;8.90;2.83;;;;;;;;;;4976111;28;20470;-85
2022/05/13 02:48:26;;;;;;;10.48;2.90;;;;;;;;;;4975669;28;20039;-85
2022/05/13 02:50:52;;;;;;;10.30;2.83;;;;;;;;;;4976091;28;20047;-85
2022/05/13 02:53:18;;;;;;;7.60;2.53;;;;;;;;;;4975536;28;20049;-85
2022/05/13 02:55:44;;;;;;;9.45;2.80;;;;;;;;;;4975659;28;20141;-83
2022/05/13 02:58:10;;;;;;;10.00;2.97;;;;;;;;;;4959465;28;20073;-85
2022/05/13 03:00:37;;;;;;;10.32;3.25;;;;;;;;;;4975889;28;20457;-84
2022/05/13 03:03:05;;;;;;;10.90;2.70;;;;;;;;;;4976975;28;20125;-85
2022/05/13 03:05:32;;;;;;;8.68;2.90;;;;;;;;;;4975939;28;20448;-84
2022/05/13 03:08:01;;;;;;;8.23;2.80;;;;;;;;;;4975483;28;20039;-85
2022/05/13 03:10:27;;;;;;;8.27;3.08;;;;;;;;;;4943497;28;20138;-84
2022/05/13 03:12:52;;;;;;;8.75;2.72;;;;;;;;;;4975340;28;20066;-85
2022/05/13 03:15:18;;;;;;;11.25;3.33;;;;;;;;;;4975687;28;20043;-84
2022/05/13 03:17:44;;;;;;;9.40;2.92;;;;;;;;;;4976456;28;20049;-85
2022/05/13 03:20:15;;;;;;;9.52;3.22;;;;;;;;;;4975411;28;20046;-85
2022/05/13 03:22:41;;;;;;;11.88;3.78;;;;;;;;;;4959166;28;20034;-85
2022/05/13 03:25:08;;;;;;;13.55;3.88;;;;;;;;;;4975391;28;20129;-85
2022/05/13 03:27:33;;;;;;;9.50;3.15;;;;;;;;;;4974988;28;20047;-85
2022/05/13 03:29:59;;;;;;;8.85;3.22;;;;;;;;;;4975130;28;20047;-84
2022/05/13 03:32:25;;;;;;;9.88;3.35;;;;;;;;;;4975236;28;20109;-84
2022/05/13 03:34:51;;;;;;;11.20;3.55;;;;;;;;;;4943107;28;20221;-86
2022/05/13 03:37:17;;;;;;;10.75;3.60;;;;;;;;;;4943198;28;20113;-83
2022/05/13 03:39:43;;;;;;;13.13;3.50;;;;;;;;;;4975144;28;20054;-84
2022/05/13 03:42:09;;;;;;;11.75;3.60;;;;;;;;;;4974851;28;20046;-84
2022/05/13 03:44:36;;;;;;;10.15;3.83;;;;;;;;;;4974527;28;20101;-84
2022/05/13 03:47:03;;;;;;;8.98;3.47;;;;;;;;;;4976300;28;20046;-84
2022/05/13 03:49:29;;;;;;;11.38;3.78;;;;;;;;;;4974733;28;20125;-84
2022/05/13 03:51:55;;;;;;;12.02;3.72;;;;;;;;;;4974829;28;20042;-83
2022/05/13 03:54:21;;;;;;;11.75;3.88;;;;;;;;;;4974693;28;20054;-84
2022/05/13 03:56:47;;;;;;;11.52;3.50;;;;;;;;;;4958721;28;20093;-84
2022/05/13 03:59:13;;;;;;;13.57;4.57;;;;;;;;;;4975752;28;20053;-84
2022/05/13 04:01:39;;;;;;;12.85;3.67;;;;;;;;;;4974611;28;20038;-84
2022/05/13 04:04:05;;;;;;;14.65;3.47;;;;;;;;;;4974274;28;20070;-84
2022/05/13 04:09:15;;;;;;;13.05;3.90;;;;;;;;;;4975694;28;20139;-84
2022/05/13 04:11:42;;;;;;;11.07;3.63;;;;;;;;;;4974544;28;20046;-84
2022/05/13 04:16:54;;;;;;;9.95;3.47;;;;;;;;;;4975612;28;20050;-83
2022/05/13 04:19:21;;;;;;;16.45;3.90;;;;;;;;;;4974095;28;20043;-84
2022/05/13 04:21:47;;;;;;;13.15;3.75;;;;;;;;;;4974511;28;20042;-84
2022/05/13 04:24:16;;;;;;;14.60;4.28;;;;;;;;;;4974041;28;20547;-83
2022/05/13 04:26:42;;;;;;;11.85;4.20;;;;;;;;;;4942133;28;20089;-84
2022/05/13 04:29:08;;;;;;;12.57;3.67;;;;;;;;;;4973766;28;20046;-84
2022/05/13 04:31:39;;;;;;;14.07;4.28;;;;;;;;;;4957926;28;20046;-84
2022/05/13 04:34:06;;;;;;;11.57;3.30;;;;;;;;;;4973827;28;20043;-84
2022/05/13 04:36:32;;;;;;;11.38;3.90;;;;;;;;;;4975472;28;20070;-85
2022/05/13 04:38:58;;;;;;;11.02;3.60;;;;;;;;;;4941799;28;20537;-84
2022/05/13 04:44:11;;;;;;;13.27;3.78;;;;;;;;;;4957501;28;20055;-84
2022/05/13 04:46:37;;;;;;;17.63;3.85;;;;;;;;;;4974042;28;20406;-84
2022/05/13 04:49:04;;;;;;;11.35;3.78;;;;;;;;;;4973465;28;20046;-84
2022/05/13 04:51:30;;;;;;;11.07;4.85;;;;;;;;;;4973871;28;20089;-84
2022/05/13 04:53:58;;;;;;;11.13;3.70;;;;;;;;;;4973428;28;20376;-84
2022/05/13 04:56:25;;;;;;;12.30;3.75;;;;;;;;;;4973098;28;20120;-84
2022/05/13 04:58:51;;;;;;;12.75;3.63;;;;;;;;;;4973319;28;20042;-84
2022/05/13 05:01:17;;;;;;;12.20;4.07;;;;;;;;;;4973742;28;20101;-84
2022/05/13 05:03:44;;;;;;;16.10;3.90;;;;;;;;;;4973266;28;20051;-84
2022/05/13 05:06:11;;;;;;;12.68;3.50;;;;;;;;;;4941552;28;20053;-84
2022/05/13 05:08:38;;;;;;;14.13;3.50;;;;;;;;;;4972924;28;20121;-84
2022/05/13 05:11:05;;;;;;;11.35;3.30;;;;;;;;;;4973394;28;20330;-83
2022/05/13 05:13:33;;;;;;;12.15;3.70;;;;;;;;;;4973465;28;20055;-83
2022/05/13 05:15:59;;;;;;;16.85;3.92;;;;;;;;;;4973288;28;20050;-83
2022/05/13 05:18:25;;;;;;;11.48;3.50;;;;;;;;;;4972976;28;20486;-84
2022/05/13 05:20:52;;;;;;;11.77;3.33;;;;;;;;;;4973173;28;20043;-84
2022/05/13 05:23:20;;;;;;;11.25;3.05;;;;;;;;;;4974279;28;20057;-85
2022/05/13 05:25:46;;;;;;;16.45;4.18;;;;;;;;;;4974574;28;20059;-85
2022/05/13 05:28:12;;;;;;;13.10;3.85;;;;;;;;;;4974244;28;20430;-84
2022/05/13 05:30:39;;;;;;;11.27;3.50;;;;;;;;;;4973007;28;20078;-84
2022/05/13 05:33:05;;;;;;;11.25;3.83;;;;;;;;;;4974313;28;20038;-84
2022/05/13 05:35:31;;;;;;;15.48;4.15;;;;;;;;;;4972953;28;20063;-85
2022/05/13 05:37:57;;;;;;;13.15;3.85;;;;;;;;;;4974144;28;20042;-85
2022/05/13 05:40:23;;;;;;;13.50;3.83;;;;;;;;;;4973234;28;20042;-85
2022/05/13 05:42:49;;;;;;;14.80;4.32;;;;;;;;;;4973065;28;20051;-85
2022/05/13 05:45:16;;;;;;;12.80;3.95;;;;;;;;;;4974001;28;20046;-84
2022/05/13 05:47:42;;;;;;;14.60;4.25;;;;;;;;;;4940967;28;20055;-85
2022/05/13 05:50:09;;;;;;;14.40;3.97;;;;;;;;;;4956500;28;20039;-84
2022/05/13 05:52:35;;;;;;;14.70;4.35;;;;;;;;;;4972706;28;20042;-84
2022/05/13 05:58:02;;;;;;;13.95;3.88;;;;;;;;;;4956628;28;20059;-84
2022/05/13 06:00:29;;;;;;;11.52;3.38;;;;;;;;;;4972776;28;20482;-84
2022/05/13 06:02:55;;;;;;;15.98;4.22;;;;;;;;;;4972498;28;20101;-84
2022/05/13 06:05:23;;;;;;;12.18;3.72;;;;;;;;;;4972360;28;20035;-85
2022/05/13 06:07:50;;;;;;;17.95;3.90;;;;;;;;;;4943201;28;20169;-84
2022/05/13 06:10:16;;;;;;;19.30;4.18;;;;;;;;;;4976507;28;20042;-85
2022/05/13 06:12:43;;;;;;;14.38;4.15;;;;;;;;;;4976758;28;20047;-83
2022/05/13 06:15:09;;;;;;;14.38;4.18;;;;;;;;;;4977653;28;20070;-86
2022/05/13 06:17:35;;;;;;;16.73;3.80;;;;;;;;;;4959993;28;20042;-85
2022/05/13 06:20:05;;;;;;;14.68;3.15;;;;;;;;;;4976179;28;20038;-85
2022/05/13 06:22:31;;;;;;;10.50;3.33;;;;;;;;;;4976434;28;20056;-85
2022/05/13 06:24:57;;;;;;;13.90;3.35;;;;;;;;;;4976394;28;20046;-85
2022/05/13 06:27:22;;;;;;;15.80;3.30;;;;;;;;;;4976615;28;20042;-85
2022/05/13 06:29:51;;;;;;;12.65;3.47;;;;;;;;;;4976041;28;20115;-85
2022/05/13 06:32:17;;;;;;;13.05;3.53;;;;;;;;;;4976256;28;20050;-86
2022/05/13 06:34:43;;;;;;;9.88;3.45;;;;;;;;;;4976043;28;20038;-85
2022/05/13 06:37:09;;;;;;;9.60;3.08;;;;;;;;;;4977402;28;20478;-85
2022/05/13 06:39:35;;;;;;;10.90;2.83;;;;;;;;;;4977127;28;20043;-85
2022/05/13 06:42:01;;;;;;;12.90;3.13;;;;;;;;;;4976283;28;20039;-85
2022/05/13 06:44:27;;;;;;;14.20;2.88;;;;;;;;;;4943718;28;20038;-86
2022/05/13 06:46:53;;;;;;;12.00;2.40;;;;;;;;;;4977259;28;20392;-86
2022/05/13 06:49:19;;;;;;;10.00;2.40;;;;;;;;;;4975598;28;20067;-85
2022/05/13 06:51:45;;;;;;;13.68;2.78;;;;;;;;;;4970868;28;20054;-85
2022/05/13 06:54:12;;;;;;;11.48;3.35;;;;;;;;;;4956651;28;20074;-86
2022/05/13 06:56:40;;;;;;;12.43;2.95;;;;;;;;;;4954820;28;20122;-85
2022/05/13 06:59:06;;;;;;;10.80;2.67;;;;;;;;;;4957639;28;20050;-86
2022/05/13 07:01:32;;;;;;;11.98;2.70;;;;;;;;;;4963170;28;20094;-85
2022/05/13 07:03:58;;;;;;;8.02;3.15;;;;;;;;;;4952902;28;20051;-85
2022/05/13 07:06:24;;;;;;;8.93;2.63;;;;;;;;;;4957308;28;20051;-86
2022/05/13 07:08:50;;;;;;;11.52;2.25;;;;;;;;;;4956463;28;20043;-85
2022/05/13 07:11:17;;;;;;;9.93;2.33;;;;;;;;;;4956518;28;20545;-86
2022/05/13 07:13:43;;;;;;;8.55;2.20;;;;;;;;;;4954147;28;20038;-85
2022/05/13 07:16:10;;;;;;;7.28;2.00;;;;;;;;;;4923921;29;20039;-86
2022/05/13 07:18:36;;;;;;;10.07;2.45;;;;;;;;;;4936697;28;20047;-86
2022/05/13 07:21:03;;;;;;;7.90;2.15;;;;;;;;;;4950713;28;20046;-87
2022/05/13 07:23:29;;;;;;;8.73;2.22;;;;;;;;;;4952041;28;20047;-86
2022/05/13 07:25:55;;;;;;;7.00;1.70;;;;;;;;;;4960408;28;20403;-86
2022/05/13 07:28:21;;;;;;;10.80;2.30;;;;;;;;;;4957211;28;20038;-85
2022/05/13 07:30:48;;;;;;;6.22;1.85;;;;;;;;;;4940662;28;20043;-86
2022/05/13 07:33:14;;;;;;;7.97;2.00;;;;;;;;;;4954615;28;20050;-86
2022/05/13 07:35:40;;;;;;;8.20;1.90;;;;;;;;;;4957742;28;20066;-85
2022/05/13 07:38:06;;;;;;;8.48;2.22;;;;;;;;;;4950840;28;20486;-86
2022/05/13 07:43:17;;;;;;;8.55;1.70;;;;;;;;;;4956534;28;20143;-85
2022/05/13 07:45:43;;;;;;;9.50;2.10;;;;;;;;;;4952901;28;20043;-85
2022/05/13 07:48:09;;;;;;;10.60;2.40;;;;;;;;;;4955996;28;20047;-87
2022/05/13 07:50:35;;;;;;;10.27;2.42;;;;;;;;;;4957297;28;20053;-86
2022/05/13 07:53:01;;;;;;;9.00;1.67;;;;;;;;;;4957898;28;20039;-89
2022/05/13 07:55:27;;;;;;;10.70;1.90;;;;;;;;;;4958852;28;20050;-85
2022/05/13 07:57:53;;;;;;;7.60;1.80;;;;;;;;;;4958762;28;20081;-86
2022/05/13 08:00:29;;;;;;;10.32;1.70;;;;;;;;;;4958592;28;20509;-86
2022/05/13 08:02:57;;;;;;;7.95;1.60;;;;;;;;;;4942659;28;20125;-86
2022/05/13 08:05:24;;;;;;;8.43;1.98;;;;;;;;;;4958502;28;20054;-85
2022/05/13 08:07:58;;;;;;;8.77;1.80;;;;;;;;;;4958419;28;20046;-85
2022/05/13 08:10:24;;;;;;;8.55;1.40;;;;;;;;;;4958480;28;20085;-85
2022/05/13 08:12:50;;;;;;;10.65;2.03;;;;;;;;;;4958686;28;20050;-85
2022/05/13 08:15:16;;;;;;;8.10;1.60;;;;;;;;;;4958091;28;20508;-85
2022/05/13 08:17:42;;;;;;;7.40;1.70;;;;;;;;;;4958321;28;20039;-85
2022/05/13 08:20:08;;;;;;;7.32;1.70;;;;;;;;;;4958097;28;20074;-85
2022/05/13 08:22:34;;;;;;;9.95;1.80;;;;;;;;;;4958037;28;20058;-87
2022/05/13 08:25:00;;;;;;;7.47;1.80;;;;;;;;;;4958257;28;20051;-85
2022/05/13 08:27:26;;;;;;;9.55;1.80;;;;;;;;;;4958326;28;20108;-85
2022/05/13 08:29:52;;;;;;;8.52;1.40;;;;;;;;;;4957712;28;20049;-85
2022/05/13 08:32:18;;;;;;;6.88;1.75;;;;;;;;;;4957963;28;20042;-84
2022/05/13 08:34:44;;;;;;;10.75;1.83;;;;;;;;;;4957920;28;20065;-86
2022/05/13 08:37:10;;;;;;;8.85;1.65;;;;;;;;;;4957820;28;20043;-85
2022/05/13 08:39:36;;;;;;;8.50;1.60;;;;;;;;;;4973836;28;20070;-85
2022/05/13 08:42:35;;;;;;;6.00;1.30;;;;;;;;;;4957662;28;20125;-86
2022/05/13 08:45:02;;;;;;;8.45;1.50;;;;;;;;;;4966596;28;20058;-85
2022/05/13 08:48:00;;;;;;;9.50;1.50;;;;;;;;;;4957768;28;20065;-87
2022/05/13 08:50:33;;;;;;;10.48;1.88;;;;;;;;;;4952350;28;20051;-86
2022/05/13 08:53:19;;;;;;;10.25;1.83;;;;;;;;;;4957598;28;20109;-86
2022/05/13 08:55:46;;;;;;;;;;;;;;;;;;4941680;28;20100;-86
2022/05/13 08:58:24;;;;;;;8.25;1.67;;;;;;;;;;4973850;28;19972;-88
2022/05/13 09:00:52;;;;;;;7.18;1.85;;;;;;;;;;4974666;28;20434;-86
2022/05/13 09:03:36;;;;;;;5.68;1.30;;;;;;;;;;4957458;28;20046;-86
2022/05/13 09:06:15;;;;;;;8.90;1.60;;;;;;;;;;4956454;28;20038;-86
2022/05/13 09:08:42;;;;;;;9.73;1.70;;;;;;;;;;4957448;28;20049;-85
2022/05/13 09:11:17;;;;;;;9.10;1.52;;;;;;;;;;4956128;28;20156;-89
2022/05/13 09:13:59;;;;;;;7.72;1.40;;;;;;;;;;4973409;28;20049;-88
2022/05/13 09:16:45;;;;;;;7.75;1.75;;;;;;;;;;4940521;28;20050;-86
2022/05/13 09:19:14;;;;;;;7.65;1.83;;;;;;;;;;4972819;28;20053;-87
2022/05/13 09:21:44;;;;;;;8.98;1.95;;;;;;;;;;4973099;28;20091;-86
2022/05/13 09:24:10;;;;;;;7.57;1.58;;;;;;;;;;4957247;28;20402;-86
2022/05/13 09:26:38;;;;;;;7.53;1.33;;;;;;;;;;4960305;28;20081;-86
2022/05/13 09:29:16;;;;;;;10.10;1.60;;;;;;;;;;4960108;28;20042;-86
2022/05/13 09:31:44;;;;;;;6.18;1.45;;;;;;;;;;4970167;28;20486;-86
2022/05/13 09:34:19;;;;;;;6.18;1.70;;;;;;;;;;4956796;28;20038;-85
2022/05/13 09:36:45;;;;;;;6.72;1.40;;;;;;;;;;4955807;28;20454;-85
2022/05/13 09:39:17;;;;;;;6.93;1.38;;;;;;;;;;4940821;28;20042;-86
2022/05/13 09:41:43;;;;;;;9.02;1.80;;;;;;;;;;4955140;28;20046;-86
2022/05/13 09:44:11;;;;;;;7.78;1.60;;;;;;;;;;4956988;28;20497;-87
2022/05/13 09:46:42;;;;;;;7.80;1.73;;;;;;;;;;4939583;28;20100;-86
2022/05/13 09:49:25;;;;;;;9.18;1.45;;;;;;;;;;4971821;28;20053;-88
2022/05/13 09:51:59;;;;;;;8.18;1.77;;;;;;;;;;4956866;28;20051;-86
2022/05/13 09:54:31;;;;;;;5.45;1.30;;;;;;;;;;4940353;28;20078;-85
2022/05/13 09:57:23;;;;;;;7.63;1.60;;;;;;;;;;4974047;28;20113;-85
2022/05/13 09:59:59;;;;;;;7.28;1.80;;;;;;;;;;4953848;28;20051;-85
2022/05/13 10:02:31;;;;;;;5.78;1.40;;;;;;;;;;4956660;28;20097;-85
2022/05/13 10:05:15;;;;;;;9.55;1.23;;;;;;;;;;4956551;28;20053;-86
2022/05/13 10:07:45;;;;;;;5.15;1.15;;;;;;;;;;4972296;28;20121;-86
2022/05/13 10:15:50;;;;;;;7.20;2.05;;;;;;;;;;4956608;28;20042;-88
2022/05/13 10:18:29;;;;;;;6.93;1.45;;;;;;;;;;4971477;28;20053;-87
2022/05/13 10:20:58;;;;;;;8.85;1.60;;;;;;;;;;4972685;28;20057;-86
2022/05/13 10:23:36;;;;;;;8.52;1.50;;;;;;;;;;4970926;28;20051;-86
2022/05/13 10:26:07;;;;;;;5.65;1.45;;;;;;;;;;4973834;28;20100;-87
2022/05/13 10:28:36;;;;;;;5.03;1.30;;;;;;;;;;4969332;28;20039;-86
2022/05/13 10:31:11;;;;;;;8.88;1.58;;;;;;;;;;4972367;28;20130;-87
2022/05/13 10:33:50;;;;;;;7.68;1.30;;;;;;;;;;4971368;28;20173;-89
2022/05/13 10:36:29;;;;;;;4.50;0.95;;;;;;;;;;4972312;28;20420;-86
2022/05/13 10:39:04;;;;;;;5.00;1.00;;;;;;;;;;4972566;28;20398;-86
2022/05/13 10:41:30;;;;;;;5.63;1.27;;;;;;;;;;4940366;28;20035;-86
2022/05/13 10:44:07;;;;;;;5.45;1.00;;;;;;;;;;4972324;28;20577;-88
2022/05/13 10:46:44;;;;;;;5.72;1.20;;;;;;;;;;4972240;28;20058;-86
2022/05/13 10:49:10;;;;;;;4.40;1.17;;;;;;;;;;4940262;28;20039;-88
2022/05/13 10:51:40;;;;;;;6.65;1.10;;;;;;;;;;4972018;28;20050;-86
2022/05/13 10:54:24;;;;;;;6.45;1.13;;;;;;;;;;4973555;28;20047;-86
2022/05/13 10:57:08;;;;;;;3.88;1.27;;;;;;;;;;4943644;28;20126;-88
2022/05/13 10:59:34;;;;;;;6.50;1.02;;;;;;;;;;4976212;28;20089;-87
2022/05/13 11:02:19;;;;;;;5.72;1.20;;;;;;;;;;4975992;28;20074;-88
2022/05/13 11:05:02;;;;;;;6.32;1.00;;;;;;;;;;4974778;28;20050;-86
2022/05/13 11:07:47;;;;;;;8.15;1.20;;;;;;;;;;4975393;28;20038;-87
2022/05/13 11:10:19;;;;;;;7.30;1.13;;;;;;;;;;4987267;28;20045;-86
2022/05/13 11:13:05;;;;;;;4.65;1.17;;;;;;;;;;4978696;28;20054;-86
2022/05/13 11:15:32;;;;;;;6.45;1.17;;;;;;;;;;4995092;28;20049;-87
2022/05/13 11:18:28;;;;;;;6.28;1.23;;;;;;;;;;4994917;28;20046;-87
2022/05/13 11:20:59;;;;;;;7.63;1.53;;;;;;;;;;4970150;28;20046;-88
2022/05/13 11:23:33;;;;;;;4.88;1.10;;;;;;;;;;4978715;28;20046;-86
2022/05/13 11:26:08;;;;;;;8.35;1.42;;;;;;;;;;4978770;28;20042;-87
2022/05/13 11:28:45;;;;;;;7.15;1.52;;;;;;;;;;4978286;28;20046;-86
2022/05/13 11:31:17;;;;;;;6.80;1.25;;;;;;;;;;4978552;28;20045;-88
2022/05/13 11:33:46;;;;;;;8.25;1.58;;;;;;;;;;4978234;28;20041;-86
2022/05/13 11:36:12;;;;;;;8.05;1.60;;;;;;;;;;4978717;28;20038;-88
2022/05/13 11:39:04;;;;;;;5.57;1.60;;;;;;;;;;4978398;28;20133;-85
2022/05/13 11:41:36;;;;;;;4.65;1.20;;;;;;;;;;4978712;28;20049;-87
2022/05/13 11:44:07;;;;;;;6.40;1.50;;;;;;;;;;4978264;28;20042;-86
2022/05/13 11:46:44;;;;;;;5.72;1.20;;;;;;;;;;4978398;28;20050;-86
2022/05/13 11:49:14;;;;;;;9.02;1.42;;;;;;;;;;4962273;28;20382;-87
2022/05/13 11:51:40;;;;;;;4.90;1.10;;;;;;;;;;4978035;28;20042;-87
2022/05/13 11:54:21;;;;;;;6.38;1.25;;;;;;;;;;4977940;28;20039;-87
2022/05/13 11:56:47;;;;;;;5.80;1.60;;;;;;;;;;4978009;28;20490;-87
2022/05/13 11:59:31;;;;;;;6.07;1.55;;;;;;;;;;4977922;28;20042;-87
2022/05/13 12:02:12;;;;;;;8.55;1.77;;;;;;;;;;4977819;28;20052;-87
2022/05/13 12:04:40;;;;;;;8.25;1.60;;;;;;;;;;4977525;28;20054;-87
2022/05/13 12:07:22;;;;;;;8.07;2.20;;;;;;;;;;4977648;28;20108;-86
2022/05/13 12:09:49;;;;;;;10.25;1.88;;;;;;;;;;4977746;28;20096;-86
2022/05/13 12:12:33;;;;;;;6.75;1.60;;;;;;;;;;4977780;28;20050;-89
2022/05/13 12:15:08;;;;;;;7.07;1.73;;;;;;;;;;4977950;28;20046;-86
2022/05/13 12:17:38;;;;;;;5.07;1.55;;;;;;;;;;4977796;28;20100;-87
2022/05/13 12:20:12;;;;;;;7.55;1.92;;;;;;;;;;4977591;28;20046;-86
2022/05/13 12:22:57;;;;;;;7.37;1.80;;;;;;;;;;4977950;28;20453;-86
2022/05/13 12:25:33;;;;;;;6.07;1.58;;;;;;;;;;4977768;28;20124;-87
2022/05/13 12:28:04;;;;;;;8.20;1.58;;;;;;;;;;4977305;28;20097;-87
2022/05/13 12:30:39;;;;;;;6.40;1.40;;;;;;;;;;4977791;28;20494;-86
2022/05/13 12:33:20;;;;;;;5.33;1.30;;;;;;;;;;4961017;28;20038;-87
2022/05/13 12:38:55;;;;;;;8.13;1.52;;;;;;;;;;4977029;28;20089;-86
2022/05/13 12:41:24;;;;;;;5.85;1.15;;;;;;;;;;4977632;28;20197;-87
2022/05/13 12:44:08;;;;;;;7.68;1.30;;;;;;;;;;4961341;28;20042;-86
2022/05/13 12:46:43;;;;;;;5.60;1.30;;;;;;;;;;4977307;28;20058;-85
2022/05/13 12:49:15;;;;;;;6.38;1.33;;;;;;;;;;4976841;28;20125;-86
2022/05/13 12:51:42;;;;;;;6.75;1.48;;;;;;;;;;4976209;28;20412;-85
2022/05/13 12:54:09;;;;;;;9.48;1.52;;;;;;;;;;4976476;28;20049;-85
2022/05/13 12:56:38;;;;;;;5.80;1.10;;;;;;;;;;4977049;28;20390;-85
2022/05/13 12:59:12;;;;;;;5.47;1.33;;;;;;;;;;4976611;28;20592;-85
2022/05/13 13:01:44;;;;;;;5.43;1.58;;;;;;;;;;4976730;28;20043;-84
2022/05/13 13:04:12;;;;;;;8.48;1.60;;;;;;;;;;4976768;28;20371;-86
2022/05/13 13:06:46;;;;;;;5.00;1.10;;;;;;;;;;4960711;28;20100;-85
2022/05/13 13:09:31;;;;;;;8.00;1.70;;;;;;;;;;4976576;28;20053;-85
2022/05/13 13:12:06;;;;;;;4.32;1.20;;;;;;;;;;4992868;28;20494;-85
2022/05/13 13:14:41;;;;;;;6.53;1.45;;;;;;;;;;4992903;28;20050;-83
2022/05/13 13:17:20;;;;;;;6.60;1.20;;;;;;;;;;4975975;28;20478;-86
2022/05/13 13:19:47;;;;;;;6.45;1.35;;;;;;;;;;4992449;28;20046;-83
2022/05/13 13:22:14;;;;;;;6.28;1.52;;;;;;;;;;4992827;28;20393;-85
2022/05/13 13:24:40;;;;;;;6.03;1.80;;;;;;;;;;4992381;28;20050;-85
2022/05/13 13:27:07;;;;;;;6.88;1.83;;;;;;;;;;4976331;28;20096;-84
2022/05/13 13:29:35;;;;;;;9.25;1.83;;;;;;;;;;4993433;28;20504;-84
2022/05/13 13:32:03;;;;;;;8.93;1.60;;;;;;;;;;4976472;28;20408;-83
2022/05/13 13:34:37;;;;;;;9.82;1.80;;;;;;;;;;4993530;28;20041;-84
2022/05/13 13:37:06;;;;;;;9.55;1.60;;;;;;;;;;4993841;28;20121;-83
2022/05/13 13:39:32;;;;;;;9.77;2.00;;;;;;;;;;4960121;28;20133;-83
2022/05/13 13:42:00;;;;;;;9.13;1.67;;;;;;;;;;4976157;28;20485;-83
2022/05/13 13:44:26;;;;;;;8.48;2.20;;;;;;;;;;4974935;28;20056;-84
2022/05/13 13:46:52;;;;;;;9.73;2.28;;;;;;;;;;4976341;28;20118;-83
2022/05/13 13:49:21;;;;;;;7.20;2.08;;;;;;;;;;4974768;28;20093;-82
2022/05/13 13:51:50;;;;;;;9.00;2.15;;;;;;;;;;4976323;28;20119;-84
2022/05/13 13:54:18;;;;;;;10.40;1.92;;;;;;;;;;4975841;28;20124;-84
2022/05/13 13:57:01;;;;;;;8.02;2.38;;;;;;;;;;4976071;28;20053;-84
2022/05/13 13:59:45;;;;;;;11.80;1.98;;;;;;;;;;4992130;28;20069;-85
2022/05/13 14:02:11;;;;;;;5.90;1.45;;;;;;;;;;4975875;28;20401;-84
2022/05/13 14:04:48;;;;;;;10.65;2.10;;;;;;;;;;4991856;28;20039;-85
2022/05/13 14:07:16;;;;;;;6.57;1.70;;;;;;;;;;4976199;28;20562;-85
2022/05/13 14:09:45;;;;;;;8.02;1.98;;;;;;;;;;4959428;28;20118;-85
2022/05/13 14:12:16;;;;;;;9.55;2.00;;;;;;;;;;4993411;28;20051;-83
2022/05/13 14:14:46;;;;;;;10.27;1.92;;;;;;;;;;4960971;28;20352;-85
2022/05/13 14:17:13;;;;;;;10.43;2.50;;;;;;;;;;4940412;28;20039;-86
2022/05/13 14:20:02;;;;;;;8.10;1.77;;;;;;;;;;4972409;28;20047;-85
2022/05/13 14:22:28;;;;;;;8.80;1.92;;;;;;;;;;4951234;28;20062;-85
2022/05/13 14:25:02;;;;;;;10.10;2.17;;;;;;;;;;4972603;28;20093;-85
2022/05/13 14:27:28;;;;;;;9.07;2.30;;;;;;;;;;4973124;28;20130;-85
2022/05/13 14:29:58;;;;;;;10.98;2.22;;;;;;;;;;4976020;28;20043;-85
2022/05/13 14:32:31;;;;;;;10.50;2.22;;;;;;;;;;4943423;28;20395;-86
2022/05/13 14:35:06;;;;;;;9.02;2.80;;;;;;;;;;4976055;28;20051;-84
2022/05/13 14:37:52;;;;;;;10.48;2.55;;;;;;;;;;4976163;28;20034;-85
2022/05/13 14:40:20;;;;;;;10.68;2.50;;;;;;;;;;4943739;28;20050;-85
2022/05/13 14:42:52;;;;;;;12.25;2.67;;;;;;;;;;4960341;28;20043;-84
2022/05/13 14:45:30;;;;;;;7.32;1.70;;;;;;;;;;4976018;28;20042;-85
2022/05/13 14:48:15;;;;;;;11.55;2.60;;;;;;;;;;4976125;28;20609;-85
2022/05/13 14:50:43;;;;;;;10.23;2.05;;;;;;;;;;4974272;28;20558;-84
2022/05/13 14:53:19;;;;;;;9.68;1.95;;;;;;;;;;4959880;28;20503;-85
2022/05/13 14:55:48;;;;;;;11.02;1.80;;;;;;;;;;4975744;28;20055;-85
2022/05/13 14:58:20;;;;;;;9.73;2.70;;;;;;;;;;4959737;28;20050;-85
2022/05/13 15:00:46;;;;;;;9.27;2.20;;;;;;;;;;4958100;28;20116;-86
2022/05/13 15:03:12;;;;;;;12.57;2.40;;;;;;;;;;4959799;28;20524;-86
2022/05/13 15:05:40;;;;;;;10.15;2.22;;;;;;;;;;4958936;28;20047;-85
2022/05/13 15:08:26;;;;;;;9.25;2.58;;;;;;;;;;4959680;28;20118;-88
2022/05/13 15:10:52;;;;;;;11.23;2.40;;;;;;;;;;4975519;28;20047;-85
2022/05/13 15:13:19;;;;;;;11.90;2.65;;;;;;;;;;4959489;28;20047;-86
2022/05/13 15:15:45;;;;;;;12.48;2.72;;;;;;;;;;4957522;28;20625;-85
2022/05/13 15:18:18;;;;;;;9.27;2.45;;;;;;;;;;4974321;28;20039;-85
2022/05/13 15:20:45;;;;;;;8.40;1.80;;;;;;;;;;4975602;28;20133;-84